sensor_id;sensor_type;location;lat;lon;timestamp;temperature;humidity
44121;DHT22;29783;52.504;13.478;2023-07-08T00:00:42;17.90;61.50
44121;DHT22;29783;52.504;13.478;2023-07-08T00:03:07;17.70;62.30
44121;DHT22;29783;52.504;13.478;2023-07-08T00:05:33;17.70;62.70
44121;DHT22;29783;52.504;13.478;2023-07-08T00:07:59;17.70;62.60
44121;DHT22;29783;52.504;13.478;2023-07-08T00:10:27;17.70;63.20
44121;DHT22;29783;52.504;13.478;2023-07-08T00:12:54;17.70;63.40
44121;DHT22;29783;52.504;13.478;2023-07-08T00:15:30;17.60;63.40
44121;DHT22;29783;52.504;13.478;2023-07-08T00:18:00;17.70;63.40
44121;DHT22;29783;52.504;13.478;2023-07-08T00:22:54;17.50;64.20
44121;DHT22;29783;52.504;13.478;2023-07-08T00:25:20;17.50;64.10
44121;DHT22;29783;52.504;13.478;2023-07-08T00:27:47;17.40;63.70
44121;DHT22;29783;52.504;13.478;2023-07-08T00:30:25;17.40;64.40
44121;DHT22;29783;52.504;13.478;2023-07-08T00:32:52;17.30;64.80
44121;DHT22;29783;52.504;13.478;2023-07-08T00:37:54;17.20;64.70
44121;DHT22;29783;52.504;13.478;2023-07-08T00:40:31;17.20;64.10
44121;DHT22;29783;52.504;13.478;2023-07-08T00:43:01;17.20;65.20
44121;DHT22;29783;52.504;13.478;2023-07-08T00:46:03;17.20;65.00
44121;DHT22;29783;52.504;13.478;2023-07-08T00:48:37;17.10;64.40
44121;DHT22;29783;52.504;13.478;2023-07-08T00:51:08;17.10;64.60
44121;DHT22;29783;52.504;13.478;2023-07-08T00:53:36;17.00;65.20
44121;DHT22;29783;52.504;13.478;2023-07-08T00:56:09;17.00;65.30
44121;DHT22;29783;52.504;13.478;2023-07-08T00:58:43;16.90;65.20
44121;DHT22;29783;52.504;13.478;2023-07-08T01:01:11;16.90;65.40
44121;DHT22;29783;52.504;13.478;2023-07-08T01:03:55;16.90;65.60
44121;DHT22;29783;52.504;13.478;2023-07-08T01:06:24;16.80;65.70
44121;DHT22;29783;52.504;13.478;2023-07-08T01:08:57;16.80;65.60
44121;DHT22;29783;52.504;13.478;2023-07-08T01:11:24;16.80;65.90
44121;DHT22;29783;52.504;13.478;2023-07-08T01:13:50;16.90;65.20
44121;DHT22;29783;52.504;13.478;2023-07-08T01:16:17;17.00;65.20
44121;DHT22;29783;52.504;13.478;2023-07-08T01:18:43;17.00;64.50
44121;DHT22;29783;52.504;13.478;2023-07-08T01:21:35;17.00;64.20
44121;DHT22;29783;52.504;13.478;2023-07-08T01:24:04;17.00;64.10
44121;DHT22;29783;52.504;13.478;2023-07-08T01:26:31;16.90;64.40
44121;DHT22;29783;52.504;13.478;2023-07-08T01:28:59;16.80;65.00
44121;DHT22;29783;52.504;13.478;2023-07-08T01:31:25;16.70;65.00
44121;DHT22;29783;52.504;13.478;2023-07-08T01:33:52;16.70;65.30
44121;DHT22;29783;52.504;13.478;2023-07-08T01:36:18;16.70;65.60
44121;DHT22;29783;52.504;13.478;2023-07-08T01:38:45;16.60;65.80
44121;DHT22;29783;52.504;13.478;2023-07-08T01:41:12;16.60;66.20
44121;DHT22;29783;52.504;13.478;2023-07-08T01:43:38;16.60;65.60
44121;DHT22;29783;52.504;13.478;2023-07-08T01:46:07;16.60;65.30
44121;DHT22;29783;52.504;13.478;2023-07-08T01:48:36;16.70;65.00
44121;DHT22;29783;52.504;13.478;2023-07-08T01:51:06;16.70;64.70
44121;DHT22;29783;52.504;13.478;2023-07-08T01:53:35;16.70;64.60
44121;DHT22;29783;52.504;13.478;2023-07-08T01:56:01;16.60;65.00
44121;DHT22;29783;52.504;13.478;2023-07-08T01:58:27;16.50;65.30
44121;DHT22;29783;52.504;13.478;2023-07-08T02:00:53;16.40;65.40
44121;DHT22;29783;52.504;13.478;2023-07-08T02:03:20;16.40;65.50
44121;DHT22;29783;52.504;13.478;2023-07-08T02:05:46;16.40;65.50
44121;DHT22;29783;52.504;13.478;2023-07-08T02:08:11;16.40;65.60
44121;DHT22;29783;52.504;13.478;2023-07-08T02:10:39;16.30;66.30
44121;DHT22;29783;52.504;13.478;2023-07-08T02:13:05;16.30;67.00
44121;DHT22;29783;52.504;13.478;2023-07-08T02:15:31;16.30;67.60
44121;DHT22;29783;52.504;13.478;2023-07-08T02:17:57;16.30;67.80
44121;DHT22;29783;52.504;13.478;2023-07-08T02:20:22;16.20;66.90
44121;DHT22;29783;52.504;13.478;2023-07-08T02:22:48;16.20;66.80
44121;DHT22;29783;52.504;13.478;2023-07-08T02:25:14;16.20;66.80
44121;DHT22;29783;52.504;13.478;2023-07-08T02:27:41;16.20;66.80
44121;DHT22;29783;52.504;13.478;2023-07-08T02:30:07;16.10;66.80
44121;DHT22;29783;52.504;13.478;2023-07-08T02:32:33;16.20;66.70
44121;DHT22;29783;52.504;13.478;2023-07-08T02:35:02;16.20;67.00
44121;DHT22;29783;52.504;13.478;2023-07-08T02:37:29;16.20;67.80
44121;DHT22;29783;52.504;13.478;2023-07-08T02:39:55;16.10;68.10
44121;DHT22;29783;52.504;13.478;2023-07-08T02:42:21;16.00;68.50
44121;DHT22;29783;52.504;13.478;2023-07-08T02:44:46;16.00;68.40
44121;DHT22;29783;52.504;13.478;2023-07-08T02:47:12;16.20;68.80
44121;DHT22;29783;52.504;13.478;2023-07-08T02:49:38;16.10;68.50
44121;DHT22;29783;52.504;13.478;2023-07-08T02:52:03;16.00;68.80
44121;DHT22;29783;52.504;13.478;2023-07-08T02:54:29;16.00;68.70
44121;DHT22;29783;52.504;13.478;2023-07-08T02:56:55;16.00;69.40
44121;DHT22;29783;52.504;13.478;2023-07-08T02:59:20;15.90;70.10
44121;DHT22;29783;52.504;13.478;2023-07-08T03:01:46;15.90;69.20
44121;DHT22;29783;52.504;13.478;2023-07-08T03:04:13;15.90;69.00
44121;DHT22;29783;52.504;13.478;2023-07-08T03:06:43;15.90;68.70
44121;DHT22;29783;52.504;13.478;2023-07-08T03:09:10;15.90;69.10
44121;DHT22;29783;52.504;13.478;2023-07-08T03:11:37;15.90;69.10
44121;DHT22;29783;52.504;13.478;2023-07-08T03:14:04;15.90;68.60
44121;DHT22;29783;52.504;13.478;2023-07-08T03:16:30;15.90;68.60
44121;DHT22;29783;52.504;13.478;2023-07-08T03:18:56;16.00;68.70
44121;DHT22;29783;52.504;13.478;2023-07-08T03:21:22;16.00;68.30
44121;DHT22;29783;52.504;13.478;2023-07-08T03:23:49;16.00;68.00
44121;DHT22;29783;52.504;13.478;2023-07-08T03:26:21;16.00;68.70
44121;DHT22;29783;52.504;13.478;2023-07-08T03:28:48;16.00;68.90
44121;DHT22;29783;52.504;13.478;2023-07-08T03:31:14;16.00;69.20
44121;DHT22;29783;52.504;13.478;2023-07-08T03:33:39;16.10;69.10
44121;DHT22;29783;52.504;13.478;2023-07-08T03:36:18;16.10;68.30
44121;DHT22;29783;52.504;13.478;2023-07-08T03:38:51;16.10;68.00
44121;DHT22;29783;52.504;13.478;2023-07-08T03:41:17;16.20;68.10
44121;DHT22;29783;52.504;13.478;2023-07-08T03:43:43;16.20;67.90
44121;DHT22;29783;52.504;13.478;2023-07-08T03:46:13;16.20;68.00
44121;DHT22;29783;52.504;13.478;2023-07-08T03:48:39;16.30;67.90
44121;DHT22;29783;52.504;13.478;2023-07-08T03:51:16;16.30;67.80
44121;DHT22;29783;52.504;13.478;2023-07-08T03:53:42;16.30;68.30
44121;DHT22;29783;52.504;13.478;2023-07-08T03:56:11;16.40;68.00
44121;DHT22;29783;52.504;13.478;2023-07-08T03:58:38;16.40;67.70
44121;DHT22;29783;52.504;13.478;2023-07-08T04:01:04;16.40;67.00
44121;DHT22;29783;52.504;13.478;2023-07-08T04:03:30;16.50;67.00
44121;DHT22;29783;52.504;13.478;2023-07-08T04:05:55;16.60;67.00
44121;DHT22;29783;52.504;13.478;2023-07-08T04:08:21;16.60;66.70
44121;DHT22;29783;52.504;13.478;2023-07-08T04:10:47;16.70;67.00
44121;DHT22;29783;52.504;13.478;2023-07-08T04:13:12;16.70;66.90
44121;DHT22;29783;52.504;13.478;2023-07-08T04:15:38;16.80;67.00
44121;DHT22;29783;52.504;13.478;2023-07-08T04:18:03;16.80;66.70
44121;DHT22;29783;52.504;13.478;2023-07-08T04:20:29;16.90;66.80
44121;DHT22;29783;52.504;13.478;2023-07-08T04:22:55;16.90;66.50
44121;DHT22;29783;52.504;13.478;2023-07-08T04:25:21;17.00;66.60
44121;DHT22;29783;52.504;13.478;2023-07-08T04:27:47;17.10;66.00
44121;DHT22;29783;52.504;13.478;2023-07-08T04:30:22;17.20;65.80
44121;DHT22;29783;52.504;13.478;2023-07-08T04:32:50;17.30;64.80
44121;DHT22;29783;52.504;13.478;2023-07-08T04:35:16;17.40;64.20
44121;DHT22;29783;52.504;13.478;2023-07-08T04:37:41;17.50;64.00
44121;DHT22;29783;52.504;13.478;2023-07-08T04:40:19;17.60;63.60
44121;DHT22;29783;52.504;13.478;2023-07-08T04:42:45;17.70;63.60
44121;DHT22;29783;52.504;13.478;2023-07-08T04:45:14;17.80;63.50
44121;DHT22;29783;52.504;13.478;2023-07-08T04:47:39;17.90;63.60
44121;DHT22;29783;52.504;13.478;2023-07-08T04:50:05;18.00;63.60
44121;DHT22;29783;52.504;13.478;2023-07-08T04:52:31;18.20;64.10
44121;DHT22;29783;52.504;13.478;2023-07-08T04:54:56;18.20;63.50
44121;DHT22;29783;52.504;13.478;2023-07-08T04:57:22;18.30;62.80
44121;DHT22;29783;52.504;13.478;2023-07-08T04:59:48;18.30;62.30
44121;DHT22;29783;52.504;13.478;2023-07-08T05:02:13;18.40;61.80
44121;DHT22;29783;52.504;13.478;2023-07-08T05:04:39;18.50;61.70
44121;DHT22;29783;52.504;13.478;2023-07-08T05:07:05;18.60;61.70
44121;DHT22;29783;52.504;13.478;2023-07-08T05:09:30;18.70;61.80
44121;DHT22;29783;52.504;13.478;2023-07-08T05:11:57;18.70;61.70
44121;DHT22;29783;52.504;13.478;2023-07-08T05:14:22;18.90;61.80
44121;DHT22;29783;52.504;13.478;2023-07-08T05:16:48;19.00;61.40
44121;DHT22;29783;52.504;13.478;2023-07-08T05:19:14;19.10;60.60
44121;DHT22;29783;52.504;13.478;2023-07-08T05:21:39;19.20;60.30
44121;DHT22;29783;52.504;13.478;2023-07-08T05:24:06;19.20;59.70
44121;DHT22;29783;52.504;13.478;2023-07-08T05:26:32;19.30;59.50
44121;DHT22;29783;52.504;13.478;2023-07-08T05:28:58;19.50;59.30
44121;DHT22;29783;52.504;13.478;2023-07-08T05:31:23;19.60;59.00
44121;DHT22;29783;52.504;13.478;2023-07-08T05:33:49;19.70;58.60
44121;DHT22;29783;52.504;13.478;2023-07-08T05:36:15;19.80;58.00
44121;DHT22;29783;52.504;13.478;2023-07-08T05:38:40;19.90;57.90
44121;DHT22;29783;52.504;13.478;2023-07-08T05:41:06;20.00;57.50
44121;DHT22;29783;52.504;13.478;2023-07-08T05:43:32;20.20;57.40
44121;DHT22;29783;52.504;13.478;2023-07-08T05:45:59;20.20;57.40
44121;DHT22;29783;52.504;13.478;2023-07-08T05:48:25;20.30;56.90
44121;DHT22;29783;52.504;13.478;2023-07-08T05:50:50;20.40;57.00
44121;DHT22;29783;52.504;13.478;2023-07-08T05:53:18;20.50;57.10
44121;DHT22;29783;52.504;13.478;2023-07-08T05:55:44;20.60;56.90
44121;DHT22;29783;52.504;13.478;2023-07-08T05:58:10;20.70;56.70
44121;DHT22;29783;52.504;13.478;2023-07-08T06:00:36;20.70;56.30
44121;DHT22;29783;52.504;13.478;2023-07-08T06:03:02;20.80;55.60
44121;DHT22;29783;52.504;13.478;2023-07-08T06:05:28;20.90;55.20
44121;DHT22;29783;52.504;13.478;2023-07-08T06:07:53;21.00;55.40
44121;DHT22;29783;52.504;13.478;2023-07-08T06:10:19;21.00;55.20
44121;DHT22;29783;52.504;13.478;2023-07-08T06:12:45;21.20;55.50
44121;DHT22;29783;52.504;13.478;2023-07-08T06:15:10;21.20;55.70
44121;DHT22;29783;52.504;13.478;2023-07-08T06:17:37;21.30;54.90
44121;DHT22;29783;52.504;13.478;2023-07-08T06:20:03;21.40;54.80
44121;DHT22;29783;52.504;13.478;2023-07-08T06:22:29;21.50;55.00
44121;DHT22;29783;52.504;13.478;2023-07-08T06:24:55;21.60;54.90
44121;DHT22;29783;52.504;13.478;2023-07-08T06:27:20;21.70;54.30
44121;DHT22;29783;52.504;13.478;2023-07-08T06:29:46;21.70;54.30
44121;DHT22;29783;52.504;13.478;2023-07-08T06:32:11;21.90;54.00
44121;DHT22;29783;52.504;13.478;2023-07-08T06:34:37;22.00;53.80
44121;DHT22;29783;52.504;13.478;2023-07-08T06:37:03;22.20;53.60
44121;DHT22;29783;52.504;13.478;2023-07-08T06:39:28;22.20;53.80
44121;DHT22;29783;52.504;13.478;2023-07-08T06:41:54;22.30;53.60
44121;DHT22;29783;52.504;13.478;2023-07-08T06:44:20;22.40;53.10
44121;DHT22;29783;52.504;13.478;2023-07-08T06:46:45;22.50;53.20
44121;DHT22;29783;52.504;13.478;2023-07-08T06:49:11;22.60;53.20
44121;DHT22;29783;52.504;13.478;2023-07-08T06:51:38;22.70;52.50
44121;DHT22;29783;52.504;13.478;2023-07-08T06:54:03;22.70;52.40
44121;DHT22;29783;52.504;13.478;2023-07-08T06:56:39;22.80;51.90
44121;DHT22;29783;52.504;13.478;2023-07-08T06:59:06;22.90;52.20
44121;DHT22;29783;52.504;13.478;2023-07-08T07:01:31;23.10;52.40
44121;DHT22;29783;52.504;13.478;2023-07-08T07:03:57;23.20;51.50
44121;DHT22;29783;52.504;13.478;2023-07-08T07:06:23;23.20;51.30
44121;DHT22;29783;52.504;13.478;2023-07-08T07:08:48;23.30;50.90
44121;DHT22;29783;52.504;13.478;2023-07-08T07:11:14;23.40;50.20
44121;DHT22;29783;52.504;13.478;2023-07-08T07:13:39;23.50;50.20
44121;DHT22;29783;52.504;13.478;2023-07-08T07:16:05;23.60;50.00
44121;DHT22;29783;52.504;13.478;2023-07-08T07:18:31;23.70;49.60
44121;DHT22;29783;52.504;13.478;2023-07-08T07:20:58;23.90;49.50
44121;DHT22;29783;52.504;13.478;2023-07-08T07:23:24;24.00;49.00
44121;DHT22;29783;52.504;13.478;2023-07-08T07:25:49;24.00;49.00
44121;DHT22;29783;52.504;13.478;2023-07-08T07:28:16;24.20;48.80
44121;DHT22;29783;52.504;13.478;2023-07-08T07:30:43;24.30;48.80
44121;DHT22;29783;52.504;13.478;2023-07-08T07:33:10;24.40;48.90
44121;DHT22;29783;52.504;13.478;2023-07-08T07:35:36;24.50;47.70
44121;DHT22;29783;52.504;13.478;2023-07-08T07:38:01;24.60;46.40
44121;DHT22;29783;52.504;13.478;2023-07-08T07:40:27;24.70;46.70
44121;DHT22;29783;52.504;13.478;2023-07-08T07:42:52;24.80;46.10
44121;DHT22;29783;52.504;13.478;2023-07-08T07:45:18;25.00;46.60
44121;DHT22;29783;52.504;13.478;2023-07-08T07:47:47;25.00;45.60
44121;DHT22;29783;52.504;13.478;2023-07-08T07:50:13;25.10;45.60
44121;DHT22;29783;52.504;13.478;2023-07-08T07:52:40;25.20;45.30
44121;DHT22;29783;52.504;13.478;2023-07-08T07:55:06;25.30;45.10
44121;DHT22;29783;52.504;13.478;2023-07-08T07:57:32;25.50;45.20
44121;DHT22;29783;52.504;13.478;2023-07-08T07:59:58;25.60;45.00
44121;DHT22;29783;52.504;13.478;2023-07-08T08:02:24;25.70;45.10
44121;DHT22;29783;52.504;13.478;2023-07-08T08:04:49;25.80;45.00
44121;DHT22;29783;52.504;13.478;2023-07-08T08:07:15;25.80;44.50
44121;DHT22;29783;52.504;13.478;2023-07-08T08:09:40;26.00;44.10
44121;DHT22;29783;52.504;13.478;2023-07-08T08:12:08;26.10;44.30
44121;DHT22;29783;52.504;13.478;2023-07-08T08:14:34;26.20;43.90
44121;DHT22;29783;52.504;13.478;2023-07-08T08:17:00;26.20;43.70
44121;DHT22;29783;52.504;13.478;2023-07-08T08:19:26;26.30;43.80
44121;DHT22;29783;52.504;13.478;2023-07-08T08:21:51;26.30;43.90
44121;DHT22;29783;52.504;13.478;2023-07-08T08:24:17;26.40;43.50
44121;DHT22;29783;52.504;13.478;2023-07-08T08:26:42;26.50;43.70
44121;DHT22;29783;52.504;13.478;2023-07-08T08:29:08;26.70;42.80
44121;DHT22;29783;52.504;13.478;2023-07-08T08:31:34;26.70;41.90
44121;DHT22;29783;52.504;13.478;2023-07-08T08:33:59;26.70;41.80
44121;DHT22;29783;52.504;13.478;2023-07-08T08:36:25;26.80;41.50
44121;DHT22;29783;52.504;13.478;2023-07-08T08:38:51;26.90;42.00
44121;DHT22;29783;52.504;13.478;2023-07-08T08:41:19;27.10;42.40
44121;DHT22;29783;52.504;13.478;2023-07-08T08:43:47;27.20;42.80
44121;DHT22;29783;52.504;13.478;2023-07-08T08:48:59;27.30;40.50
44121;DHT22;29783;52.504;13.478;2023-07-08T08:51:30;27.40;41.50
44121;DHT22;29783;52.504;13.478;2023-07-08T08:53:58;27.40;41.90
44121;DHT22;29783;52.504;13.478;2023-07-08T08:56:29;27.50;41.70
44121;DHT22;29783;52.504;13.478;2023-07-08T09:01:44;27.60;41.20
44121;DHT22;29783;52.504;13.478;2023-07-08T09:04:19;27.70;40.10
44121;DHT22;29783;52.504;13.478;2023-07-08T09:06:46;27.80;39.70
44121;DHT22;29783;52.504;13.478;2023-07-08T09:09:40;27.80;40.00
44121;DHT22;29783;52.504;13.478;2023-07-08T09:12:17;28.00;38.90
44121;DHT22;29783;52.504;13.478;2023-07-08T09:14:44;28.10;36.90
44121;DHT22;29783;52.504;13.478;2023-07-08T09:17:23;28.20;37.20
44121;DHT22;29783;52.504;13.478;2023-07-08T09:27:40;28.40;34.30
44121;DHT22;29783;52.504;13.478;2023-07-08T09:30:13;28.40;33.90
44121;DHT22;29783;52.504;13.478;2023-07-08T09:32:39;28.30;33.80
44121;DHT22;29783;52.504;13.478;2023-07-08T09:35:07;28.40;32.40
44121;DHT22;29783;52.504;13.478;2023-07-08T09:37:38;28.70;32.40
44121;DHT22;29783;52.504;13.478;2023-07-08T09:42:39;28.70;33.00
44121;DHT22;29783;52.504;13.478;2023-07-08T09:45:17;28.80;33.20
44121;DHT22;29783;52.504;13.478;2023-07-08T09:47:44;28.90;33.50
44121;DHT22;29783;52.504;13.478;2023-07-08T09:50:27;29.10;33.60
44121;DHT22;29783;52.504;13.478;2023-07-08T09:52:55;29.20;32.90
44121;DHT22;29783;52.504;13.478;2023-07-08T09:55:30;29.30;32.40
44121;DHT22;29783;52.504;13.478;2023-07-08T09:57:58;29.30;32.40
44121;DHT22;29783;52.504;13.478;2023-07-08T10:00:33;29.20;32.00
44121;DHT22;29783;52.504;13.478;2023-07-08T10:03:23;29.30;32.10
44121;DHT22;29783;52.504;13.478;2023-07-08T10:05:52;29.50;32.30
44121;DHT22;29783;52.504;13.478;2023-07-08T10:08:23;29.60;31.30
44121;DHT22;29783;52.504;13.478;2023-07-08T10:10:57;29.60;31.00
44121;DHT22;29783;52.504;13.478;2023-07-08T10:13:51;29.70;30.30
44121;DHT22;29783;52.504;13.478;2023-07-08T10:16:26;29.50;30.70
44121;DHT22;29783;52.504;13.478;2023-07-08T10:18:52;29.40;31.30
44121;DHT22;29783;52.504;13.478;2023-07-08T10:26:46;29.80;29.90
44121;DHT22;29783;52.504;13.478;2023-07-08T10:29:40;29.60;28.80
44121;DHT22;29783;52.504;13.478;2023-07-08T10:46:22;29.80;29.70
44121;DHT22;29783;52.504;13.478;2023-07-08T10:51:41;30.20;30.20
44121;DHT22;29783;52.504;13.478;2023-07-08T11:06:09;30.30;28.70
44121;DHT22;29783;52.504;13.478;2023-07-08T11:08:44;30.10;28.90
44121;DHT22;29783;52.504;13.478;2023-07-08T11:13:58;30.60;29.00
44121;DHT22;29783;52.504;13.478;2023-07-08T11:16:30;30.70;28.10
44121;DHT22;29783;52.504;13.478;2023-07-08T11:19:23;30.80;27.70
44121;DHT22;29783;52.504;13.478;2023-07-08T11:21:54;30.20;28.00
44121;DHT22;29783;52.504;13.478;2023-07-08T11:27:12;30.40;29.10
44121;DHT22;29783;52.504;13.478;2023-07-08T11:32:37;30.90;28.60
44121;DHT22;29783;52.504;13.478;2023-07-08T11:35:06;30.70;27.70
44121;DHT22;29783;52.504;13.478;2023-07-08T11:37:34;30.60;28.10
44121;DHT22;29783;52.504;13.478;2023-07-08T11:40:21;31.10;28.40
44121;DHT22;29783;52.504;13.478;2023-07-08T11:42:53;31.30;28.00
44121;DHT22;29783;52.504;13.478;2023-07-08T11:45:32;31.30;27.40
44121;DHT22;29783;52.504;13.478;2023-07-08T11:48:29;31.20;27.50
44121;DHT22;29783;52.504;13.478;2023-07-08T11:50:56;31.40;28.00
44121;DHT22;29783;52.504;13.478;2023-07-08T11:56:03;31.70;28.10
44121;DHT22;29783;52.504;13.478;2023-07-08T11:58:57;31.80;26.60
44121;DHT22;29783;52.504;13.478;2023-07-08T12:01:23;31.80;26.40
44121;DHT22;29783;52.504;13.478;2023-07-08T12:09:15;31.80;26.50
44121;DHT22;29783;52.504;13.478;2023-07-08T12:11:45;31.80;26.20
44121;DHT22;29783;52.504;13.478;2023-07-08T12:14:11;32.50;26.40
44121;DHT22;29783;52.504;13.478;2023-07-08T12:16:37;33.30;25.10
44121;DHT22;29783;52.504;13.478;2023-07-08T12:19:04;34.00;24.50
44121;DHT22;29783;52.504;13.478;2023-07-08T12:24:04;35.80;22.60
44121;DHT22;29783;52.504;13.478;2023-07-08T12:26:32;36.10;22.50
44121;DHT22;29783;52.504;13.478;2023-07-08T12:28:58;37.10;21.50
44121;DHT22;29783;52.504;13.478;2023-07-08T12:31:23;37.20;21.30
44121;DHT22;29783;52.504;13.478;2023-07-08T12:33:50;37.50;21.10
44121;DHT22;29783;52.504;13.478;2023-07-08T12:36:28;38.30;20.30
44121;DHT22;29783;52.504;13.478;2023-07-08T12:38:58;39.00;19.40
44121;DHT22;29783;52.504;13.478;2023-07-08T12:41:30;39.40;19.10
44121;DHT22;29783;52.504;13.478;2023-07-08T12:43:57;40.40;18.80
44121;DHT22;29783;52.504;13.478;2023-07-08T12:46:24;40.00;18.40
44121;DHT22;29783;52.504;13.478;2023-07-08T12:48:50;40.00;18.20
44121;DHT22;29783;52.504;13.478;2023-07-08T12:51:21;41.10;18.20
44121;DHT22;29783;52.504;13.478;2023-07-08T12:53:51;41.10;17.60
44121;DHT22;29783;52.504;13.478;2023-07-08T12:56:19;40.80;17.70
44121;DHT22;29783;52.504;13.478;2023-07-08T12:58:49;40.60;18.50
44121;DHT22;29783;52.504;13.478;2023-07-08T13:01:28;41.70;17.30
44121;DHT22;29783;52.504;13.478;2023-07-08T13:04:03;41.90;17.30
44121;DHT22;29783;52.504;13.478;2023-07-08T13:06:31;41.40;17.70
44121;DHT22;29783;52.504;13.478;2023-07-08T13:09:05;41.30;17.70
44121;DHT22;29783;52.504;13.478;2023-07-08T13:11:32;42.00;17.20
44121;DHT22;29783;52.504;13.478;2023-07-08T13:14:00;40.60;18.20
44121;DHT22;29783;52.504;13.478;2023-07-08T13:16:32;40.70;18.20
44121;DHT22;29783;52.504;13.478;2023-07-08T13:18:59;41.00;18.00
44121;DHT22;29783;52.504;13.478;2023-07-08T13:21:26;40.80;18.10
44121;DHT22;29783;52.504;13.478;2023-07-08T13:23:53;40.90;18.40
44121;DHT22;29783;52.504;13.478;2023-07-08T13:26:22;41.30;17.30
44121;DHT22;29783;52.504;13.478;2023-07-08T13:28:48;41.00;18.10
44121;DHT22;29783;52.504;13.478;2023-07-08T13:31:20;41.30;17.80
44121;DHT22;29783;52.504;13.478;2023-07-08T13:33:51;42.30;16.70
44121;DHT22;29783;52.504;13.478;2023-07-08T13:36:19;42.30;17.00
44121;DHT22;29783;52.504;13.478;2023-07-08T13:38:46;41.80;17.40
44121;DHT22;29783;52.504;13.478;2023-07-08T13:41:20;42.20;16.50
44121;DHT22;29783;52.504;13.478;2023-07-08T13:43:46;42.30;16.50
44121;DHT22;29783;52.504;13.478;2023-07-08T13:46:34;41.50;16.60
44121;DHT22;29783;52.504;13.478;2023-07-08T13:49:13;41.50;17.30
44121;DHT22;29783;52.504;13.478;2023-07-08T13:51:40;42.10;16.40
44121;DHT22;29783;52.504;13.478;2023-07-08T13:54:34;40.90;17.40
44121;DHT22;29783;52.504;13.478;2023-07-08T13:57:01;41.60;16.80
44121;DHT22;29783;52.504;13.478;2023-07-08T13:59:27;41.60;16.70
44121;DHT22;29783;52.504;13.478;2023-07-08T14:01:55;41.00;17.10
44121;DHT22;29783;52.504;13.478;2023-07-08T14:04:33;41.20;17.10
44121;DHT22;29783;52.504;13.478;2023-07-08T14:07:00;43.00;15.80
44121;DHT22;29783;52.504;13.478;2023-07-08T14:09:26;42.40;16.20
44121;DHT22;29783;52.504;13.478;2023-07-08T14:11:52;43.20;16.00
44121;DHT22;29783;52.504;13.478;2023-07-08T14:14:18;42.60;16.40
44121;DHT22;29783;52.504;13.478;2023-07-08T14:16:50;42.50;16.20
44121;DHT22;29783;52.504;13.478;2023-07-08T14:19:23;42.60;16.10
44121;DHT22;29783;52.504;13.478;2023-07-08T14:21:54;43.10;15.80
44121;DHT22;29783;52.504;13.478;2023-07-08T14:24:20;42.20;16.80
44121;DHT22;29783;52.504;13.478;2023-07-08T14:26:46;42.80;16.30
44121;DHT22;29783;52.504;13.478;2023-07-08T14:29:13;42.30;16.70
44121;DHT22;29783;52.504;13.478;2023-07-08T14:31:39;41.60;17.40
44121;DHT22;29783;52.504;13.478;2023-07-08T14:34:08;42.10;16.30
44121;DHT22;29783;52.504;13.478;2023-07-08T14:36:34;43.70;15.60
44121;DHT22;29783;52.504;13.478;2023-07-08T14:39:00;43.60;15.80
44121;DHT22;29783;52.504;13.478;2023-07-08T14:41:27;42.80;15.80
44121;DHT22;29783;52.504;13.478;2023-07-08T14:43:54;43.20;15.80
44121;DHT22;29783;52.504;13.478;2023-07-08T14:46:20;43.20;15.80
44121;DHT22;29783;52.504;13.478;2023-07-08T14:48:45;43.30;15.80
44121;DHT22;29783;52.504;13.478;2023-07-08T14:51:11;43.10;15.50
44121;DHT22;29783;52.504;13.478;2023-07-08T14:53:37;43.20;15.90
44121;DHT22;29783;52.504;13.478;2023-07-08T14:56:16;43.60;15.60
44121;DHT22;29783;52.504;13.478;2023-07-08T14:58:44;43.00;15.90
44121;DHT22;29783;52.504;13.478;2023-07-08T15:01:22;42.90;15.80
44121;DHT22;29783;52.504;13.478;2023-07-08T15:03:49;43.00;16.10
44121;DHT22;29783;52.504;13.478;2023-07-08T15:06:15;43.20;15.40
44121;DHT22;29783;52.504;13.478;2023-07-08T15:08:40;43.10;15.50
44121;DHT22;29783;52.504;13.478;2023-07-08T15:11:09;42.60;15.60
44121;DHT22;29783;52.504;13.478;2023-07-08T15:13:36;41.80;16.40
44121;DHT22;29783;52.504;13.478;2023-07-08T15:16:02;42.10;16.10
44121;DHT22;29783;52.504;13.478;2023-07-08T15:18:27;41.80;16.50
44121;DHT22;29783;52.504;13.478;2023-07-08T15:20:53;42.20;16.10
44121;DHT22;29783;52.504;13.478;2023-07-08T15:23:19;42.40;15.70
44121;DHT22;29783;52.504;13.478;2023-07-08T15:25:46;41.60;16.50
44121;DHT22;29783;52.504;13.478;2023-07-08T15:28:42;42.10;16.10
44121;DHT22;29783;52.504;13.478;2023-07-08T15:31:14;42.10;16.20
44121;DHT22;29783;52.504;13.478;2023-07-08T15:33:40;42.10;16.30
44121;DHT22;29783;52.504;13.478;2023-07-08T15:36:07;42.30;16.30
44121;DHT22;29783;52.504;13.478;2023-07-08T15:38:34;42.60;16.20
44121;DHT22;29783;52.504;13.478;2023-07-08T15:40:59;43.10;15.80
44121;DHT22;29783;52.504;13.478;2023-07-08T15:43:25;42.70;16.40
44121;DHT22;29783;52.504;13.478;2023-07-08T15:45:50;42.80;16.40
44121;DHT22;29783;52.504;13.478;2023-07-08T15:48:19;42.90;15.80
44121;DHT22;29783;52.504;13.478;2023-07-08T15:50:44;42.10;17.10
44121;DHT22;29783;52.504;13.478;2023-07-08T15:53:10;43.10;16.00
44121;DHT22;29783;52.504;13.478;2023-07-08T15:55:39;43.70;15.60
44121;DHT22;29783;52.504;13.478;2023-07-08T15:58:10;43.70;15.50
44121;DHT22;29783;52.504;13.478;2023-07-08T16:00:38;43.60;15.60
44121;DHT22;29783;52.504;13.478;2023-07-08T16:03:27;42.30;16.40
44121;DHT22;29783;52.504;13.478;2023-07-08T16:05:54;42.90;15.90
44121;DHT22;29783;52.504;13.478;2023-07-08T16:08:20;43.00;15.90
44121;DHT22;29783;52.504;13.478;2023-07-08T16:10:58;42.50;16.70
44121;DHT22;29783;52.504;13.478;2023-07-08T16:13:31;42.80;15.90
44121;DHT22;29783;52.504;13.478;2023-07-08T16:15:57;43.00;16.20
44121;DHT22;29783;52.504;13.478;2023-07-08T16:18:23;43.50;15.50
44121;DHT22;29783;52.504;13.478;2023-07-08T16:20:49;43.40;15.60
44121;DHT22;29783;52.504;13.478;2023-07-08T16:23:14;43.20;15.80
44121;DHT22;29783;52.504;13.478;2023-07-08T16:25:43;42.30;16.10
44121;DHT22;29783;52.504;13.478;2023-07-08T16:30:55;42.20;16.40
44121;DHT22;29783;52.504;13.478;2023-07-08T16:33:21;42.10;16.60
44121;DHT22;29783;52.504;13.478;2023-07-08T16:35:47;42.60;16.10
44121;DHT22;29783;52.504;13.478;2023-07-08T16:38:13;42.80;16.00
44121;DHT22;29783;52.504;13.478;2023-07-08T16:40:40;43.00;15.70